No se requiere un especial cuidado respecto a la situación meteorológica.   -   No hay avisos

Informes METAR

 

LEZL - Sevilla, Spain
Distancia de la estación: ENE 8km
Actualización: 24/04/2018 16:00
Poco nuboso
Poco nuboso
 Viento de SSO
Viento: SSO 9 km/h
Temperatura: 24°C
Rocío: 15°C
Humedad: 57%
Barómetro: 1012 hPa
Nubes: Poco nuboso
Visibilidad: 10 km
Detalles de las nubes: Poco nuboso 1280 m
2018/04/24 14:00 LEZL 241400Z 21005KT 150V280 9999 FEW042 24/15 Q1012 NOSIG
LEMO - Morón, Spain
Distancia de la estación: SE 43km
Actualización: 24/04/2018 16:00
Poco nuboso
Poco nuboso
 Viento de O
Viento: O 11 km/h
Temperatura: 25°C
Rocío: 15°C
Humedad: 54%
Barómetro: 1013 hPa
Nubes: Poco nuboso
Visibilidad: 10 km
Detalles de las nubes: Poco nuboso 1219 m
2018/04/24 14:00 LEMO 241400Z 28006KT 230V330 9999 FEW040 25/15 Q1013 NOSIG
LEJR - Jeréz, Spain
Distancia de la estación: S 71km
Actualización: 24/04/2018 16:30
Parcialmente nuboso
Parcialmente nuboso
 Viento de OSO
Viento: OSO 22 km/h
Temperatura: 23°C
Rocío: 15°C
Humedad: 61%
Barómetro: 1013 hPa
Nubes: Parcialmente nuboso
Visibilidad: 9 km
Detalles de las nubes: Poco nuboso 762 m
Parcialmente nuboso 1676 m
2018/04/24 14:30 LEJR 241430Z 25012KT 230V290 9000 FEW025 SCT055 23/15 Q1013
 
LERT - Rota, Spain
Distancia de la estación: SSO 89km
Actualización: 24/04/2018 16:00
Despejado
Despejado
 Viento de O
Viento: O 13 km/h
Temperatura: 20°C
Rocío: 17°C
Humedad: 83%
Barómetro: 1014 hPa
Resumen: Despejado
Visibilidad: mayor de 10 km
2018/04/24 14:00 LERT 241400Z 27007KT 230V310 CAVOK 20/17 Q1014 NOSIG
LEMG - Málaga, Spain
Distancia de la estación: ESE 157km
Actualización: 24/04/2018 16:30
Poco nuboso
Poco nuboso
 Viento de S
Viento: S 20 km/h
Temperatura: 22°C
Rocío: 13°C
Humedad: 57%
Barómetro: 1013 hPa
Nubes: Poco nuboso
Visibilidad: 10 km
Detalles de las nubes: Poco nuboso 762 m
2018/04/24 14:30 LEMG 241430Z 17011KT 110V210 9999 FEW025 22/13 Q1013 NOSIG
LEBA - Córdoba, Spain
Distancia de la estación: ENE 115km
Actualización: 24/04/2018 16:00
Despejado
Despejado
 Viento de SO
Viento: SO 13 km/h
Temperatura: 27°C
índice de calor: 27°C
Rocío: 13°C
Humedad: 42%
Barómetro: 1011 hPa
Resumen: Despejado
Visibilidad: mayor de 10 km
2018/04/24 14:00 LEBA 241400Z 22007KT 180V280 CAVOK 27/13 Q1011
 
LEGR - Granada, Spain
Distancia de la estación: E 198km
Actualización: 24/04/2018 16:00
Poco nuboso
Poco nuboso
 Viento de O
Viento: O 6 km/h
Temperatura: 27°C
Rocío: 9°C
Humedad: 32%
Barómetro: 1012 hPa
Nubes: Poco nuboso
Visibilidad: 10 km
Detalles de las nubes: Poco nuboso 2134 m
2018/04/24 14:00 LEGR 241400Z 26003KT 210V320 9999 FEW070 27/09 Q1012
LEAM - Almería, Spain
Distancia de la estación: E 326km
Actualización: 24/04/2018 16:00
Despejado
Despejado
 Viento de ENE
Viento: ENE 48 km/h
Temperatura: 28°C
Rocío: 11°C
Humedad: 35%
Barómetro: 1010 hPa
Resumen: Despejado
Visibilidad: mayor de 10 km
2018/04/24 14:00 LEAM 241400Z 06026KT CAVOK 28/11 Q1010
LEMD - Madrid/Barajas, Spain
Distancia de la estación: NNE 402km
Actualización: 24/04/2018 16:30
Despejado
Despejado
 Viento de SE
Viento: SE 9 km/h
Temperatura: 25°C
Rocío: 7°C
Humedad: 32%
Barómetro: 1017 hPa
Resumen: Despejado
Visibilidad: mayor de 10 km
2018/04/24 14:30 LEMD 241430Z 13005KT 070V170 CAVOK 25/07 Q1017 NOSIG
 
LEVD - Valladolid, Spain
Distancia de la estación: N 492km
Actualización: 24/04/2018 16:00
Despejado
Despejado
 Viento de NE
Viento: NE 7 km/h
Temperatura: 23°C
Rocío: 9°C
Humedad: 41%
Barómetro: 1018 hPa
Resumen: Despejado
Visibilidad: mayor de 10 km
2018/04/24 14:00 LEVD 241400Z 05004KT 320V120 CAVOK 23/09 Q1018
LEBL - Barcelona, Spain
Distancia de la estación: NE 816km
Actualización: 24/04/2018 16:30
Despejado
Despejado
 Viento de SSE
Viento: SSE 15 km/h
Temperatura: 22°C
Rocío: 12°C
Humedad: 53%
Barómetro: 1018 hPa
Resumen: Despejado
Visibilidad: mayor de 10 km
2018/04/24 14:30 LEBL 241430Z 15008KT CAVOK 22/12 Q1018 NOSIG
LEVC - Valencia, Spain
Distancia de la estación: ENE 535km
Actualización: 24/04/2018 16:30
Despejado
Despejado
 Viento de ENE
Viento: ENE 15 km/h
Temperatura: 24°C
Rocío: 8°C
Humedad: 36%
Barómetro: 1017 hPa
Resumen: Despejado
Visibilidad: mayor de 10 km
2018/04/24 14:30 LEVC 241430Z 06008KT 010V120 CAVOK 24/08 Q1017 NOSIG